sensor_id;sensor_type;location;lat;lon;timestamp;P1;durP1;ratioP1;P2;durP2;ratioP2
64244;SDS011;50584;29.058;-110.966;2022-11-20T00:01:45;11.38;;;2.10;;
64244;SDS011;50584;29.058;-110.966;2022-11-20T00:04:10;8.77;;;2.05;;
64244;SDS011;50584;29.058;-110.966;2022-11-20T00:06:37;8.55;;;2.20;;
64244;SDS011;50584;29.058;-110.966;2022-11-20T00:09:03;15.82;;;2.50;;
64244;SDS011;50584;29.058;-110.966;2022-11-20T00:11:32;19.73;;;3.20;;
64244;SDS011;50584;29.058;-110.966;2022-11-20T00:13:59;8.98;;;3.28;;
64244;SDS011;50584;29.058;-110.966;2022-11-20T00:16:26;11.82;;;3.42;;
64244;SDS011;50584;29.058;-110.966;2022-11-20T00:18:52;11.70;;;2.00;;
64244;SDS011;50584;29.058;-110.966;2022-11-20T00:21:20;6.43;;;1.85;;
64244;SDS011;50584;29.058;-110.966;2022-11-20T00:23:46;2.35;;;1.50;;
64244;SDS011;50584;29.058;-110.966;2022-11-20T00:26:13;3.92;;;1.75;;
64244;SDS011;50584;29.058;-110.966;2022-11-20T00:28:39;9.23;;;1.75;;
64244;SDS011;50584;29.058;-110.966;2022-11-20T00:31:07;3.72;;;1.58;;
64244;SDS011;50584;29.058;-110.966;2022-11-20T00:33:34;8.23;;;1.83;;
64244;SDS011;50584;29.058;-110.966;2022-11-20T00:36:00;3.25;;;1.85;;
64244;SDS011;50584;29.058;-110.966;2022-11-20T00:38:26;3.78;;;1.83;;
64244;SDS011;50584;29.058;-110.966;2022-11-20T00:40:56;7.15;;;1.92;;
64244;SDS011;50584;29.058;-110.966;2022-11-20T00:43:22;8.23;;;1.90;;
64244;SDS011;50584;29.058;-110.966;2022-11-20T00:45:48;5.78;;;1.90;;
64244;SDS011;50584;29.058;-110.966;2022-11-20T00:48:13;7.82;;;2.85;;
64244;SDS011;50584;29.058;-110.966;2022-11-20T00:50:40;5.25;;;2.63;;
64244;SDS011;50584;29.058;-110.966;2022-11-20T00:53:06;8.52;;;3.78;;
64244;SDS011;50584;29.058;-110.966;2022-11-20T00:55:32;9.00;;;3.45;;
64244;SDS011;50584;29.058;-110.966;2022-11-20T00:57:58;17.27;;;3.58;;
64244;SDS011;50584;29.058;-110.966;2022-11-20T01:00:23;13.40;;;3.00;;
64244;SDS011;50584;29.058;-110.966;2022-11-20T01:02:49;14.25;;;3.67;;
64244;SDS011;50584;29.058;-110.966;2022-11-20T01:05:15;13.30;;;3.72;;
64244;SDS011;50584;29.058;-110.966;2022-11-20T01:07:41;10.30;;;2.90;;
64244;SDS011;50584;29.058;-110.966;2022-11-20T01:10:06;9.52;;;2.53;;
64244;SDS011;50584;29.058;-110.966;2022-11-20T01:12:32;8.05;;;2.60;;
64244;SDS011;50584;29.058;-110.966;2022-11-20T01:14:58;6.43;;;2.50;;
64244;SDS011;50584;29.058;-110.966;2022-11-20T01:17:24;6.97;;;1.80;;
64244;SDS011;50584;29.058;-110.966;2022-11-20T01:19:50;1.48;;;1.38;;
64244;SDS011;50584;29.058;-110.966;2022-11-20T01:22:16;5.80;;;1.63;;
64244;SDS011;50584;29.058;-110.966;2022-11-20T01:24:41;6.00;;;1.30;;
64244;SDS011;50584;29.058;-110.966;2022-11-20T01:27:07;5.30;;;1.52;;
64244;SDS011;50584;29.058;-110.966;2022-11-20T01:29:33;2.95;;;2.22;;
64244;SDS011;50584;29.058;-110.966;2022-11-20T01:31:59;8.10;;;1.70;;
64244;SDS011;50584;29.058;-110.966;2022-11-20T01:34:24;5.72;;;1.30;;
64244;SDS011;50584;29.058;-110.966;2022-11-20T01:36:51;6.63;;;1.77;;
64244;SDS011;50584;29.058;-110.966;2022-11-20T01:39:21;3.42;;;1.60;;
64244;SDS011;50584;29.058;-110.966;2022-11-20T01:41:48;5.95;;;1.80;;
64244;SDS011;50584;29.058;-110.966;2022-11-20T01:50:03;6.38;;;1.65;;
64244;SDS011;50584;29.058;-110.966;2022-11-20T01:52:34;8.10;;;1.52;;
64244;SDS011;50584;29.058;-110.966;2022-11-20T01:55:04;8.88;;;1.75;;
64244;SDS011;50584;29.058;-110.966;2022-11-20T01:57:31;5.32;;;1.60;;
64244;SDS011;50584;29.058;-110.966;2022-11-20T02:00:00;2.45;;;1.48;;
64244;SDS011;50584;29.058;-110.966;2022-11-20T02:02:27;2.00;;;1.65;;
64244;SDS011;50584;29.058;-110.966;2022-11-20T02:04:54;7.55;;;1.58;;
64244;SDS011;50584;29.058;-110.966;2022-11-20T02:07:21;7.07;;;2.05;;
64244;SDS011;50584;29.058;-110.966;2022-11-20T02:09:48;6.57;;;2.33;;
64244;SDS011;50584;29.058;-110.966;2022-11-20T02:12:13;9.70;;;4.03;;
64244;SDS011;50584;29.058;-110.966;2022-11-20T02:14:59;9.40;;;3.85;;
64244;SDS011;50584;29.058;-110.966;2022-11-20T02:17:25;8.55;;;3.50;;
64244;SDS011;50584;29.058;-110.966;2022-11-20T02:19:51;12.15;;;4.15;;
64244;SDS011;50584;29.058;-110.966;2022-11-20T02:22:19;13.77;;;3.50;;
64244;SDS011;50584;29.058;-110.966;2022-11-20T02:24:46;15.02;;;3.60;;
64244;SDS011;50584;29.058;-110.966;2022-11-20T02:27:14;9.85;;;2.92;;
64244;SDS011;50584;29.058;-110.966;2022-11-20T02:29:48;6.47;;;2.30;;
64244;SDS011;50584;29.058;-110.966;2022-11-20T02:32:29;5.90;;;2.83;;
64244;SDS011;50584;29.058;-110.966;2022-11-20T02:34:55;3.90;;;1.80;;
64244;SDS011;50584;29.058;-110.966;2022-11-20T02:37:22;13.57;;;2.00;;
64244;SDS011;50584;29.058;-110.966;2022-11-20T02:39:51;2.47;;;1.70;;
64244;SDS011;50584;29.058;-110.966;2022-11-20T02:42:17;3.72;;;1.90;;
64244;SDS011;50584;29.058;-110.966;2022-11-20T02:44:43;4.15;;;1.77;;
64244;SDS011;50584;29.058;-110.966;2022-11-20T02:47:09;6.55;;;2.08;;
64244;SDS011;50584;29.058;-110.966;2022-11-20T02:49:35;3.80;;;1.83;;
64244;SDS011;50584;29.058;-110.966;2022-11-20T02:52:01;4.82;;;2.00;;
64244;SDS011;50584;29.058;-110.966;2022-11-20T02:54:26;4.65;;;2.05;;
64244;SDS011;50584;29.058;-110.966;2022-11-20T02:56:52;7.00;;;2.00;;
64244;SDS011;50584;29.058;-110.966;2022-11-20T02:59:18;7.05;;;1.70;;
64244;SDS011;50584;29.058;-110.966;2022-11-20T03:01:44;1.92;;;1.67;;
64244;SDS011;50584;29.058;-110.966;2022-11-20T03:04:10;8.05;;;1.90;;
64244;SDS011;50584;29.058;-110.966;2022-11-20T03:06:36;9.70;;;2.08;;
64244;SDS011;50584;29.058;-110.966;2022-11-20T03:09:01;12.55;;;1.80;;
64244;SDS011;50584;29.058;-110.966;2022-11-20T03:11:27;7.63;;;2.30;;
64244;SDS011;50584;29.058;-110.966;2022-11-20T03:13:53;7.18;;;2.20;;
64244;SDS011;50584;29.058;-110.966;2022-11-20T03:16:20;8.27;;;2.10;;
64244;SDS011;50584;29.058;-110.966;2022-11-20T03:18:46;10.35;;;2.30;;
64244;SDS011;50584;29.058;-110.966;2022-11-20T03:21:12;3.47;;;2.10;;
64244;SDS011;50584;29.058;-110.966;2022-11-20T03:23:39;6.53;;;2.42;;
64244;SDS011;50584;29.058;-110.966;2022-11-20T03:26:08;14.23;;;3.10;;
64244;SDS011;50584;29.058;-110.966;2022-11-20T03:28:34;9.07;;;2.53;;
64244;SDS011;50584;29.058;-110.966;2022-11-20T03:31:07;3.30;;;2.92;;
64244;SDS011;50584;29.058;-110.966;2022-11-20T03:33:33;11.98;;;2.97;;
64244;SDS011;50584;29.058;-110.966;2022-11-20T03:36:03;6.70;;;2.67;;
64244;SDS011;50584;29.058;-110.966;2022-11-20T03:38:30;5.10;;;2.80;;
64244;SDS011;50584;29.058;-110.966;2022-11-20T03:41:07;6.07;;;2.60;;
64244;SDS011;50584;29.058;-110.966;2022-11-20T03:43:33;7.45;;;2.80;;
64244;SDS011;50584;29.058;-110.966;2022-11-20T03:45:59;8.02;;;3.40;;
64244;SDS011;50584;29.058;-110.966;2022-11-20T03:48:24;3.50;;;2.53;;
64244;SDS011;50584;29.058;-110.966;2022-11-20T03:51:05;5.38;;;2.75;;
64244;SDS011;50584;29.058;-110.966;2022-11-20T03:53:31;7.13;;;2.88;;
64244;SDS011;50584;29.058;-110.966;2022-11-20T03:55:57;7.07;;;2.90;;
64244;SDS011;50584;29.058;-110.966;2022-11-20T03:58:23;5.65;;;2.60;;
64244;SDS011;50584;29.058;-110.966;2022-11-20T04:00:49;8.48;;;3.10;;
64244;SDS011;50584;29.058;-110.966;2022-11-20T04:03:14;12.68;;;3.33;;
64244;SDS011;50584;29.058;-110.966;2022-11-20T04:05:40;7.15;;;2.90;;
64244;SDS011;50584;29.058;-110.966;2022-11-20T04:08:06;5.63;;;3.47;;
64244;SDS011;50584;29.058;-110.966;2022-11-20T04:10:32;3.83;;;3.47;;
64244;SDS011;50584;29.058;-110.966;2022-11-20T04:12:58;9.25;;;3.30;;
64244;SDS011;50584;29.058;-110.966;2022-11-20T04:15:23;12.80;;;3.92;;
64244;SDS011;50584;29.058;-110.966;2022-11-20T04:17:49;9.15;;;3.22;;
64244;SDS011;50584;29.058;-110.966;2022-11-20T04:20:15;3.38;;;2.40;;
64244;SDS011;50584;29.058;-110.966;2022-11-20T04:22:41;9.38;;;2.53;;
64244;SDS011;50584;29.058;-110.966;2022-11-20T04:25:07;7.18;;;2.45;;
64244;SDS011;50584;29.058;-110.966;2022-11-20T04:27:33;2.25;;;2.15;;
64244;SDS011;50584;29.058;-110.966;2022-11-20T04:29:58;4.18;;;2.30;;
64244;SDS011;50584;29.058;-110.966;2022-11-20T04:32:24;3.90;;;2.70;;
64244;SDS011;50584;29.058;-110.966;2022-11-20T04:34:50;7.60;;;2.50;;
64244;SDS011;50584;29.058;-110.966;2022-11-20T04:37:16;2.25;;;2.15;;
64244;SDS011;50584;29.058;-110.966;2022-11-20T04:39:41;3.83;;;2.28;;
64244;SDS011;50584;29.058;-110.966;2022-11-20T04:42:08;4.10;;;2.30;;
64244;SDS011;50584;29.058;-110.966;2022-11-20T04:44:52;4.25;;;2.60;;
64244;SDS011;50584;29.058;-110.966;2022-11-20T04:47:18;5.38;;;2.00;;
64244;SDS011;50584;29.058;-110.966;2022-11-20T04:49:43;3.22;;;1.92;;
64244;SDS011;50584;29.058;-110.966;2022-11-20T04:52:09;6.18;;;2.00;;
64244;SDS011;50584;29.058;-110.966;2022-11-20T04:54:35;10.50;;;1.92;;
64244;SDS011;50584;29.058;-110.966;2022-11-20T04:57:01;5.78;;;2.00;;
64244;SDS011;50584;29.058;-110.966;2022-11-20T04:59:26;2.63;;;1.88;;
64244;SDS011;50584;29.058;-110.966;2022-11-20T05:01:52;7.75;;;2.20;;
64244;SDS011;50584;29.058;-110.966;2022-11-20T05:04:18;9.57;;;1.95;;
64244;SDS011;50584;29.058;-110.966;2022-11-20T05:06:44;8.15;;;2.17;;
64244;SDS011;50584;29.058;-110.966;2022-11-20T05:09:11;9.73;;;2.03;;
64244;SDS011;50584;29.058;-110.966;2022-11-20T05:11:37;5.55;;;2.38;;
64244;SDS011;50584;29.058;-110.966;2022-11-20T05:14:02;13.73;;;2.53;;
64244;SDS011;50584;29.058;-110.966;2022-11-20T05:16:28;6.47;;;2.30;;
64244;SDS011;50584;29.058;-110.966;2022-11-20T05:18:54;10.65;;;2.40;;
64244;SDS011;50584;29.058;-110.966;2022-11-20T05:21:20;4.22;;;2.72;;
64244;SDS011;50584;29.058;-110.966;2022-11-20T05:23:46;5.75;;;3.25;;
64244;SDS011;50584;29.058;-110.966;2022-11-20T05:26:13;10.27;;;2.45;;
64244;SDS011;50584;29.058;-110.966;2022-11-20T05:28:39;17.77;;;3.17;;
64244;SDS011;50584;29.058;-110.966;2022-11-20T05:31:09;4.38;;;3.33;;
64244;SDS011;50584;29.058;-110.966;2022-11-20T05:33:35;6.05;;;2.50;;
64244;SDS011;50584;29.058;-110.966;2022-11-20T05:36:02;6.15;;;2.40;;
64244;SDS011;50584;29.058;-110.966;2022-11-20T05:38:28;6.53;;;2.88;;
64244;SDS011;50584;29.058;-110.966;2022-11-20T05:40:54;2.67;;;2.47;;
64244;SDS011;50584;29.058;-110.966;2022-11-20T05:43:20;5.38;;;2.30;;
64244;SDS011;50584;29.058;-110.966;2022-11-20T05:45:55;6.28;;;2.20;;
64244;SDS011;50584;29.058;-110.966;2022-11-20T05:48:20;2.92;;;2.63;;
64244;SDS011;50584;29.058;-110.966;2022-11-20T05:50:47;14.93;;;4.65;;
64244;SDS011;50584;29.058;-110.966;2022-11-20T05:53:13;8.07;;;3.88;;
64244;SDS011;50584;29.058;-110.966;2022-11-20T05:55:38;14.13;;;3.42;;
64244;SDS011;50584;29.058;-110.966;2022-11-20T05:58:04;13.05;;;3.13;;
64244;SDS011;50584;29.058;-110.966;2022-11-20T06:00:30;7.93;;;3.15;;
64244;SDS011;50584;29.058;-110.966;2022-11-20T06:02:56;17.05;;;3.55;;
64244;SDS011;50584;29.058;-110.966;2022-11-20T06:05:22;6.43;;;3.28;;
64244;SDS011;50584;29.058;-110.966;2022-11-20T06:07:47;9.15;;;3.55;;
64244;SDS011;50584;29.058;-110.966;2022-11-20T06:10:13;3.83;;;3.05;;
64244;SDS011;50584;29.058;-110.966;2022-11-20T06:12:39;3.75;;;3.33;;
64244;SDS011;50584;29.058;-110.966;2022-11-20T06:15:05;8.90;;;3.50;;
64244;SDS011;50584;29.058;-110.966;2022-11-20T06:17:31;18.30;;;4.22;;
64244;SDS011;50584;29.058;-110.966;2022-11-20T06:19:57;15.75;;;4.75;;
64244;SDS011;50584;29.058;-110.966;2022-11-20T06:22:22;23.10;;;4.97;;
64244;SDS011;50584;29.058;-110.966;2022-11-20T06:24:48;15.27;;;4.72;;
64244;SDS011;50584;29.058;-110.966;2022-11-20T06:27:14;9.82;;;4.45;;
64244;SDS011;50584;29.058;-110.966;2022-11-20T06:29:40;10.10;;;4.10;;
64244;SDS011;50584;29.058;-110.966;2022-11-20T06:32:05;8.88;;;4.15;;
64244;SDS011;50584;29.058;-110.966;2022-11-20T06:34:31;18.17;;;4.20;;
64244;SDS011;50584;29.058;-110.966;2022-11-20T06:36:57;7.50;;;3.60;;
64244;SDS011;50584;29.058;-110.966;2022-11-20T06:39:23;8.90;;;3.70;;
64244;SDS011;50584;29.058;-110.966;2022-11-20T06:41:48;8.35;;;3.95;;
64244;SDS011;50584;29.058;-110.966;2022-11-20T06:44:14;17.58;;;3.72;;
64244;SDS011;50584;29.058;-110.966;2022-11-20T06:46:40;9.60;;;3.20;;
64244;SDS011;50584;29.058;-110.966;2022-11-20T06:49:06;17.45;;;4.32;;
64244;SDS011;50584;29.058;-110.966;2022-11-20T06:51:31;10.38;;;3.78;;
64244;SDS011;50584;29.058;-110.966;2022-11-20T06:53:57;20.50;;;4.43;;
64244;SDS011;50584;29.058;-110.966;2022-11-20T06:56:23;17.63;;;4.20;;
64244;SDS011;50584;29.058;-110.966;2022-11-20T06:58:49;12.07;;;3.80;;
64244;SDS011;50584;29.058;-110.966;2022-11-20T07:01:14;9.27;;;3.80;;
64244;SDS011;50584;29.058;-110.966;2022-11-20T07:03:40;10.95;;;3.72;;
64244;SDS011;50584;29.058;-110.966;2022-11-20T07:06:06;12.73;;;5.25;;
64244;SDS011;50584;29.058;-110.966;2022-11-20T07:08:33;23.20;;;6.38;;
64244;SDS011;50584;29.058;-110.966;2022-11-20T07:11:03;26.70;;;4.95;;
64244;SDS011;50584;29.058;-110.966;2022-11-20T07:13:29;12.68;;;5.22;;
64244;SDS011;50584;29.058;-110.966;2022-11-20T07:15:58;27.45;;;5.25;;
64244;SDS011;50584;29.058;-110.966;2022-11-20T07:18:24;16.30;;;4.47;;
64244;SDS011;50584;29.058;-110.966;2022-11-20T07:20:50;14.88;;;5.03;;
64244;SDS011;50584;29.058;-110.966;2022-11-20T07:23:15;16.40;;;4.00;;
64244;SDS011;50584;29.058;-110.966;2022-11-20T07:25:41;16.67;;;5.32;;
64244;SDS011;50584;29.058;-110.966;2022-11-20T07:28:07;11.93;;;3.83;;
64244;SDS011;50584;29.058;-110.966;2022-11-20T07:30:33;7.50;;;3.50;;
64244;SDS011;50584;29.058;-110.966;2022-11-20T07:32:59;18.98;;;4.30;;
64244;SDS011;50584;29.058;-110.966;2022-11-20T07:35:25;12.75;;;3.95;;
64244;SDS011;50584;29.058;-110.966;2022-11-20T07:37:51;7.25;;;3.45;;
64244;SDS011;50584;29.058;-110.966;2022-11-20T07:40:17;13.27;;;4.10;;
64244;SDS011;50584;29.058;-110.966;2022-11-20T07:42:49;8.50;;;3.22;;
64244;SDS011;50584;29.058;-110.966;2022-11-20T07:45:15;11.40;;;2.70;;
64244;SDS011;50584;29.058;-110.966;2022-11-20T07:47:41;14.60;;;2.90;;
64244;SDS011;50584;29.058;-110.966;2022-11-20T07:50:07;6.53;;;2.88;;
64244;SDS011;50584;29.058;-110.966;2022-11-20T07:52:33;6.43;;;2.80;;
64244;SDS011;50584;29.058;-110.966;2022-11-20T07:54:59;4.68;;;2.78;;
64244;SDS011;50584;29.058;-110.966;2022-11-20T07:57:25;7.82;;;2.63;;
64244;SDS011;50584;29.058;-110.966;2022-11-20T07:59:50;6.72;;;2.30;;
64244;SDS011;50584;29.058;-110.966;2022-11-20T08:02:16;6.13;;;2.35;;
64244;SDS011;50584;29.058;-110.966;2022-11-20T08:04:42;8.00;;;2.45;;
64244;SDS011;50584;29.058;-110.966;2022-11-20T08:07:08;4.93;;;2.20;;
64244;SDS011;50584;29.058;-110.966;2022-11-20T08:09:33;3.80;;;2.50;;
64244;SDS011;50584;29.058;-110.966;2022-11-20T08:11:59;8.40;;;3.00;;
64244;SDS011;50584;29.058;-110.966;2022-11-20T08:14:43;3.47;;;2.63;;
64244;SDS011;50584;29.058;-110.966;2022-11-20T08:17:09;5.90;;;2.78;;
64244;SDS011;50584;29.058;-110.966;2022-11-20T08:19:35;4.75;;;2.83;;
64244;SDS011;50584;29.058;-110.966;2022-11-20T08:22:01;7.78;;;3.13;;
64244;SDS011;50584;29.058;-110.966;2022-11-20T08:24:26;4.30;;;2.78;;
64244;SDS011;50584;29.058;-110.966;2022-11-20T08:26:52;5.95;;;3.22;;
64244;SDS011;50584;29.058;-110.966;2022-11-20T08:29:18;5.57;;;3.33;;
64244;SDS011;50584;29.058;-110.966;2022-11-20T08:31:44;5.95;;;2.40;;
64244;SDS011;50584;29.058;-110.966;2022-11-20T08:34:10;3.45;;;2.72;;
64244;SDS011;50584;29.058;-110.966;2022-11-20T08:36:36;11.10;;;2.90;;
64244;SDS011;50584;29.058;-110.966;2022-11-20T08:39:02;12.73;;;3.28;;
64244;SDS011;50584;29.058;-110.966;2022-11-20T08:41:28;8.88;;;3.28;;
64244;SDS011;50584;29.058;-110.966;2022-11-20T08:44:00;6.68;;;2.95;;
64244;SDS011;50584;29.058;-110.966;2022-11-20T08:46:27;6.95;;;2.85;;
64244;SDS011;50584;29.058;-110.966;2022-11-20T08:48:53;8.82;;;2.78;;
64244;SDS011;50584;29.058;-110.966;2022-11-20T08:51:19;16.98;;;3.30;;
64244;SDS011;50584;29.058;-110.966;2022-11-20T08:53:45;11.98;;;3.17;;
64244;SDS011;50584;29.058;-110.966;2022-11-20T08:56:13;8.02;;;3.50;;
64244;SDS011;50584;29.058;-110.966;2022-11-20T08:58:39;6.65;;;2.95;;
64244;SDS011;50584;29.058;-110.966;2022-11-20T09:01:05;10.02;;;2.80;;
64244;SDS011;50584;29.058;-110.966;2022-11-20T09:03:31;8.93;;;3.03;;
64244;SDS011;50584;29.058;-110.966;2022-11-20T09:05:58;11.57;;;3.15;;
64244;SDS011;50584;29.058;-110.966;2022-11-20T09:08:25;14.13;;;3.85;;
64244;SDS011;50584;29.058;-110.966;2022-11-20T09:10:51;6.85;;;2.67;;
64244;SDS011;50584;29.058;-110.966;2022-11-20T09:13:18;9.90;;;3.30;;
64244;SDS011;50584;29.058;-110.966;2022-11-20T09:15:43;5.28;;;3.08;;
64244;SDS011;50584;29.058;-110.966;2022-11-20T09:18:09;7.53;;;2.40;;
64244;SDS011;50584;29.058;-110.966;2022-11-20T09:20:35;9.23;;;2.40;;
64244;SDS011;50584;29.058;-110.966;2022-11-20T09:23:01;3.65;;;2.70;;
64244;SDS011;50584;29.058;-110.966;2022-11-20T09:25:26;3.72;;;2.90;;
64244;SDS011;50584;29.058;-110.966;2022-11-20T09:27:56;4.93;;;2.78;;
64244;SDS011;50584;29.058;-110.966;2022-11-20T09:30:21;13.18;;;2.60;;
64244;SDS011;50584;29.058;-110.966;2022-11-20T09:32:47;5.93;;;2.28;;
64244;SDS011;50584;29.058;-110.966;2022-11-20T09:35:13;5.07;;;2.35;;
64244;SDS011;50584;29.058;-110.966;2022-11-20T09:37:39;2.75;;;2.38;;
64244;SDS011;50584;29.058;-110.966;2022-11-20T09:40:06;4.05;;;2.20;;
64244;SDS011;50584;29.058;-110.966;2022-11-20T09:54:43;2.33;;;2.13;;
64244;SDS011;50584;29.058;-110.966;2022-11-20T09:57:10;5.00;;;2.50;;
64244;SDS011;50584;29.058;-110.966;2022-11-20T09:59:40;3.10;;;2.40;;
64244;SDS011;50584;29.058;-110.966;2022-11-20T10:04:39;5.00;;;2.40;;
64244;SDS011;50584;29.058;-110.966;2022-11-20T10:07:52;15.98;;;2.60;;
64244;SDS011;50584;29.058;-110.966;2022-11-20T10:09:58;3.05;;;2.20;;
64244;SDS011;50584;29.058;-110.966;2022-11-20T10:12:31;2.58;;;1.92;;
64244;SDS011;50584;29.058;-110.966;2022-11-20T10:15:21;8.80;;;2.15;;
64244;SDS011;50584;29.058;-110.966;2022-11-20T10:25:34;7.40;;;1.95;;
64244;SDS011;50584;29.058;-110.966;2022-11-20T10:28:09;4.95;;;2.20;;
64244;SDS011;50584;29.058;-110.966;2022-11-20T10:30:37;5.32;;;2.08;;
64244;SDS011;50584;29.058;-110.966;2022-11-20T10:33:05;8.50;;;2.10;;
64244;SDS011;50584;29.058;-110.966;2022-11-20T10:35:45;11.18;;;3.20;;
64244;SDS011;50584;29.058;-110.966;2022-11-20T10:38:16;5.55;;;1.92;;
64244;SDS011;50584;29.058;-110.966;2022-11-20T10:40:53;5.00;;;2.03;;
64244;SDS011;50584;29.058;-110.966;2022-11-20T10:43:40;3.65;;;1.77;;
64244;SDS011;50584;29.058;-110.966;2022-11-20T10:46:10;1.90;;;1.80;;
64244;SDS011;50584;29.058;-110.966;2022-11-20T10:48:39;8.52;;;2.13;;
64244;SDS011;50584;29.058;-110.966;2022-11-20T10:53:54;7.95;;;2.05;;
64244;SDS011;50584;29.058;-110.966;2022-11-20T10:56:26;1.80;;;1.70;;
64244;SDS011;50584;29.058;-110.966;2022-11-20T11:01:40;3.13;;;2.08;;
64244;SDS011;50584;29.058;-110.966;2022-11-20T11:04:13;1.80;;;1.70;;
64244;SDS011;50584;29.058;-110.966;2022-11-20T11:06:45;3.53;;;1.90;;
64244;SDS011;50584;29.058;-110.966;2022-11-20T11:09:22;2.30;;;2.03;;
64244;SDS011;50584;29.058;-110.966;2022-11-20T11:11:48;7.57;;;1.88;;
64244;SDS011;50584;29.058;-110.966;2022-11-20T11:14:14;1.85;;;1.75;;
64244;SDS011;50584;29.058;-110.966;2022-11-20T11:19:16;11.25;;;1.83;;
64244;SDS011;50584;29.058;-110.966;2022-11-20T11:21:49;3.95;;;2.00;;
64244;SDS011;50584;29.058;-110.966;2022-11-20T11:24:36;7.93;;;2.00;;
64244;SDS011;50584;29.058;-110.966;2022-11-20T11:27:02;2.42;;;1.75;;
64244;SDS011;50584;29.058;-110.966;2022-11-20T11:29:32;2.03;;;1.88;;
64244;SDS011;50584;29.058;-110.966;2022-11-20T11:34:30;1.95;;;1.85;;
64244;SDS011;50584;29.058;-110.966;2022-11-20T11:36:57;5.65;;;1.75;;
64244;SDS011;50584;29.058;-110.966;2022-11-20T11:39:23;4.95;;;1.90;;
64244;SDS011;50584;29.058;-110.966;2022-11-20T11:41:50;8.43;;;1.80;;
64244;SDS011;50584;29.058;-110.966;2022-11-20T11:44:18;1.85;;;1.60;;
64244;SDS011;50584;29.058;-110.966;2022-11-20T11:47:03;12.63;;;2.17;;
64244;SDS011;50584;29.058;-110.966;2022-11-20T11:49:29;3.83;;;2.00;;
64244;SDS011;50584;29.058;-110.966;2022-11-20T11:56:52;7.78;;;2.17;;
64244;SDS011;50584;29.058;-110.966;2022-11-20T11:59:24;3.15;;;2.17;;
64244;SDS011;50584;29.058;-110.966;2022-11-20T12:02:00;1.90;;;1.77;;
64244;SDS011;50584;29.058;-110.966;2022-11-20T12:04:37;2.45;;;2.20;;
64244;SDS011;50584;29.058;-110.966;2022-11-20T12:07:10;4.28;;;1.80;;
64244;SDS011;50584;29.058;-110.966;2022-11-20T12:09:39;1.98;;;1.85;;
64244;SDS011;50584;29.058;-110.966;2022-11-20T12:12:20;3.58;;;1.75;;
64244;SDS011;50584;29.058;-110.966;2022-11-20T12:14:48;3.50;;;1.60;;
64244;SDS011;50584;29.058;-110.966;2022-11-20T12:17:15;1.50;;;1.50;;
64244;SDS011;50584;29.058;-110.966;2022-11-20T12:19:41;4.28;;;2.10;;
64244;SDS011;50584;29.058;-110.966;2022-11-20T12:22:17;3.25;;;1.55;;
64244;SDS011;50584;29.058;-110.966;2022-11-20T12:24:55;2.53;;;1.70;;
64244;SDS011;50584;29.058;-110.966;2022-11-20T12:32:30;3.15;;;1.95;;
64244;SDS011;50584;29.058;-110.966;2022-11-20T12:35:11;3.22;;;2.10;;
64244;SDS011;50584;29.058;-110.966;2022-11-20T12:42:47;2.58;;;1.80;;
64244;SDS011;50584;29.058;-110.966;2022-11-20T12:55:50;3.45;;;1.90;;
64244;SDS011;50584;29.058;-110.966;2022-11-20T13:04:07;2.15;;;2.03;;
64244;SDS011;50584;29.058;-110.966;2022-11-20T13:06:34;3.83;;;1.90;;
64244;SDS011;50584;29.058;-110.966;2022-11-20T13:09:00;3.83;;;1.85;;
64244;SDS011;50584;29.058;-110.966;2022-11-20T13:19:24;3.63;;;1.60;;
64244;SDS011;50584;29.058;-110.966;2022-11-20T13:21:50;4.40;;;2.03;;
64244;SDS011;50584;29.058;-110.966;2022-11-20T13:26:45;2.10;;;2.00;;
64244;SDS011;50584;29.058;-110.966;2022-11-20T13:29:15;4.50;;;1.95;;
64244;SDS011;50584;29.058;-110.966;2022-11-20T13:31:43;5.20;;;2.08;;
64244;SDS011;50584;29.058;-110.966;2022-11-20T13:34:11;8.30;;;2.25;;
64244;SDS011;50584;29.058;-110.966;2022-11-20T13:36:38;3.65;;;1.75;;
64244;SDS011;50584;29.058;-110.966;2022-11-20T13:39:23;2.00;;;1.50;;
64244;SDS011;50584;29.058;-110.966;2022-11-20T13:41:53;4.05;;;2.08;;
64244;SDS011;50584;29.058;-110.966;2022-11-20T13:44:37;2.33;;;1.90;;
64244;SDS011;50584;29.058;-110.966;2022-11-20T13:47:03;3.83;;;2.10;;
64244;SDS011;50584;29.058;-110.966;2022-11-20T13:49:39;2.30;;;2.20;;
64244;SDS011;50584;29.058;-110.966;2022-11-20T14:02:36;4.63;;;2.05;;
64244;SDS011;50584;29.058;-110.966;2022-11-20T14:05:02;2.58;;;1.85;;
64244;SDS011;50584;29.058;-110.966;2022-11-20T14:07:34;10.25;;;2.00;;
64244;SDS011;50584;29.058;-110.966;2022-11-20T14:10:02;7.30;;;2.08;;
64244;SDS011;50584;29.058;-110.966;2022-11-20T14:12:29;4.15;;;1.95;;
64244;SDS011;50584;29.058;-110.966;2022-11-20T14:14:55;5.57;;;2.45;;
64244;SDS011;50584;29.058;-110.966;2022-11-20T14:17:29;2.55;;;1.90;;
64244;SDS011;50584;29.058;-110.966;2022-11-20T14:19:57;3.53;;;2.00;;
64244;SDS011;50584;29.058;-110.966;2022-11-20T14:22:24;8.25;;;2.20;;
64244;SDS011;50584;29.058;-110.966;2022-11-20T14:25:17;3.58;;;2.38;;
64244;SDS011;50584;29.058;-110.966;2022-11-20T14:27:44;3.25;;;2.40;;
64244;SDS011;50584;29.058;-110.966;2022-11-20T14:32:59;5.68;;;2.33;;
64244;SDS011;50584;29.058;-110.966;2022-11-20T14:35:27;8.73;;;2.22;;
64244;SDS011;50584;29.058;-110.966;2022-11-20T14:37:54;2.60;;;2.30;;
64244;SDS011;50584;29.058;-110.966;2022-11-20T14:40:31;5.10;;;2.28;;
64244;SDS011;50584;29.058;-110.966;2022-11-20T14:42:58;4.20;;;2.10;;
64244;SDS011;50584;29.058;-110.966;2022-11-20T14:45:24;5.70;;;1.90;;
64244;SDS011;50584;29.058;-110.966;2022-11-20T14:47:51;3.63;;;2.10;;
64244;SDS011;50584;29.058;-110.966;2022-11-20T14:50:20;6.40;;;1.90;;
64244;SDS011;50584;29.058;-110.966;2022-11-20T14:52:51;13.88;;;2.47;;
64244;SDS011;50584;29.058;-110.966;2022-11-20T14:55:36;6.53;;;2.35;;
64244;SDS011;50584;29.058;-110.966;2022-11-20T15:00:29;3.78;;;1.95;;
64244;SDS011;50584;29.058;-110.966;2022-11-20T15:02:55;4.38;;;1.92;;
64244;SDS011;50584;29.058;-110.966;2022-11-20T15:05:22;7.57;;;2.42;;
64244;SDS011;50584;29.058;-110.966;2022-11-20T15:07:49;4.68;;;2.20;;
64244;SDS011;50584;29.058;-110.966;2022-11-20T15:10:20;5.53;;;2.40;;
64244;SDS011;50584;29.058;-110.966;2022-11-20T15:12:50;2.78;;;2.50;;
64244;SDS011;50584;29.058;-110.966;2022-11-20T15:15:30;3.60;;;2.28;;
64244;SDS011;50584;29.058;-110.966;2022-11-20T15:17:56;8.32;;;2.47;;
64244;SDS011;50584;29.058;-110.966;2022-11-20T15:20:24;5.38;;;2.30;;
64244;SDS011;50584;29.058;-110.966;2022-11-20T15:22:51;4.82;;;2.22;;
64244;SDS011;50584;29.058;-110.966;2022-11-20T15:25:17;2.83;;;2.10;;
64244;SDS011;50584;29.058;-110.966;2022-11-20T15:27:43;7.70;;;1.88;;
64244;SDS011;50584;29.058;-110.966;2022-11-20T15:30:13;9.63;;;2.00;;
64244;SDS011;50584;29.058;-110.966;2022-11-20T15:32:40;6.50;;;2.13;;
64244;SDS011;50584;29.058;-110.966;2022-11-20T15:35:06;6.68;;;2.20;;
64244;SDS011;50584;29.058;-110.966;2022-11-20T15:37:32;4.53;;;2.53;;
64244;SDS011;50584;29.058;-110.966;2022-11-20T15:39:58;7.40;;;2.00;;
64244;SDS011;50584;29.058;-110.966;2022-11-20T15:42:23;3.00;;;2.00;;
64244;SDS011;50584;29.058;-110.966;2022-11-20T15:44:49;3.88;;;2.13;;
64244;SDS011;50584;29.058;-110.966;2022-11-20T15:47:15;4.85;;;2.00;;